Time;durP1;ratioP1;P1;durP2;ratioP2;P2;SDS_P1;SDS_P2;PMS_P1;PMS_P2;Temp;Humidity;BMP_temperature;BMP_pressure;BME280_temperature;BME280_humidity;BME280_pressure;Samples;Min_cycle;Max_cycle;Signal;HPM_P1;HPM_P2
2022/07/10 00:01:49;;;;;;;25.05;4.47;;;13.60;99.90;;;;;;5051728;28;20044;-65
2022/07/10 00:04:20;;;;;;;24.40;3.95;;;13.60;99.90;;;;;;5054790;28;20491;-67
2022/07/10 00:06:49;;;;;;;19.73;4.32;;;13.60;99.90;;;;;;5072223;28;20036;-67
2022/07/10 00:09:14;;;;;;;20.45;3.83;;;13.60;99.90;;;;;;5059469;28;20418;-67
2022/07/10 00:11:41;;;;;;;19.15;4.10;;;13.50;99.90;;;;;;5058380;28;20041;-66
2022/07/10 00:14:07;;;;;;;19.33;4.63;;;13.40;99.90;;;;;;5057672;28;20039;-67
2022/07/10 00:16:32;;;;;;;28.05;4.50;;;13.40;99.90;;;;;;5055357;28;20041;-66
2022/07/10 00:18:58;;;;;;;20.88;4.20;;;13.30;99.90;;;;;;5055661;28;20124;-67
2022/07/10 00:21:23;;;;;;;23.00;4.68;;;13.30;99.90;;;;;;5054509;28;20045;-66
2022/07/10 00:23:49;;;;;;;26.38;4.63;;;13.30;99.90;;;;;;5058845;28;20387;-66
2022/07/10 00:26:15;;;;;;;18.08;4.35;;;13.30;99.90;;;;;;5054731;28;20040;-66
2022/07/10 00:28:40;;;;;;;22.45;4.75;;;13.30;99.90;;;;;;5048217;28;20186;-66
2022/07/10 00:31:06;;;;;;;28.50;4.32;;;13.30;99.90;;;;;;5060665;28;20037;-65
2022/07/10 00:33:32;;;;;;;22.33;4.60;;;13.30;99.90;;;;;;5064190;28;20141;-65
2022/07/10 00:35:58;;;;;;;27.50;4.60;;;13.30;99.90;;;;;;5060635;28;20059;-66
2022/07/10 00:38:24;;;;;;;20.30;4.15;;;13.20;99.90;;;;;;5059657;28;20037;-65
2022/07/10 00:40:50;;;;;;;17.17;4.72;;;13.30;99.90;;;;;;5060648;28;20186;-66
2022/07/10 00:43:16;;;;;;;25.42;4.75;;;13.20;99.90;;;;;;5062424;28;20105;-65
2022/07/10 00:45:41;;;;;;;19.65;4.28;;;13.20;99.90;;;;;;5062337;28;20506;-65
2022/07/10 00:48:09;;;;;;;26.35;4.53;;;13.20;99.90;;;;;;5057050;28;20036;-65
2022/07/10 00:50:34;;;;;;;20.40;4.72;;;13.20;99.90;;;;;;5057404;28;20052;-65
2022/07/10 00:53:02;;;;;;;21.63;4.28;;;13.20;99.90;;;;;;5058543;28;20049;-64
2022/07/10 00:55:28;;;;;;;22.27;4.15;;;13.10;99.90;;;;;;5060431;28;21171;-65
2022/07/10 00:57:55;;;;;;;25.85;4.85;;;13.00;99.90;;;;;;5059446;28;20033;-64
2022/07/10 01:00:21;;;;;;;26.88;4.63;;;13.00;99.90;;;;;;5057450;28;20047;-65
2022/07/10 01:02:47;;;;;;;18.17;4.47;;;12.90;99.90;;;;;;5060763;28;20041;-65
2022/07/10 01:05:13;;;;;;;20.23;4.70;;;12.90;99.90;;;;;;5059774;28;20068;-66
2022/07/10 01:07:39;;;;;;;16.92;4.60;;;12.80;99.90;;;;;;5058870;28;20052;-65
2022/07/10 01:10:05;;;;;;;16.55;4.70;;;12.80;99.90;;;;;;5054600;28;20131;-66
2022/07/10 01:12:31;;;;;;;24.48;4.68;;;12.70;99.90;;;;;;5071290;28;20037;-66
2022/07/10 01:14:58;;;;;;;21.30;5.22;;;12.70;99.90;;;;;;5056815;28;20043;-65
2022/07/10 01:17:24;;;;;;;20.10;4.65;;;12.70;99.90;;;;;;5063064;28;20041;-66
2022/07/10 01:19:50;;;;;;;18.73;4.35;;;12.60;99.90;;;;;;5056062;28;20094;-66
2022/07/10 01:22:15;;;;;;;17.08;4.57;;;12.50;99.90;;;;;;5051550;28;20538;-65
2022/07/10 01:24:41;;;;;;;21.17;4.75;;;12.50;99.90;;;;;;5058344;28;20487;-67
2022/07/10 01:27:08;;;;;;;26.75;4.70;;;12.50;99.90;;;;;;5058345;28;20048;-67
2022/07/10 01:29:35;;;;;;;21.65;5.15;;;12.40;99.90;;;;;;5059955;28;20044;-67
2022/07/10 01:32:01;;;;;;;28.83;5.47;;;12.40;99.90;;;;;;5058271;28;20036;-66
2022/07/10 01:34:27;;;;;;;21.40;4.60;;;12.40;99.90;;;;;;5057561;28;20036;-65
2022/07/10 01:36:53;;;;;;;17.70;4.43;;;12.40;99.90;;;;;;5039622;28;20057;-65
2022/07/10 01:39:19;;;;;;;18.65;4.78;;;12.40;99.90;;;;;;5070557;28;20380;-66
2022/07/10 01:41:44;;;;;;;21.50;4.97;;;12.40;99.90;;;;;;5060571;28;20040;-66
2022/07/10 01:44:10;;;;;;;25.65;4.63;;;12.30;99.90;;;;;;5061280;28;20040;-66
2022/07/10 01:46:42;;;;;;;25.73;4.38;;;12.30;99.90;;;;;;5054617;28;20045;-65
2022/07/10 01:49:07;;;;;;;30.83;5.63;;;12.40;99.90;;;;;;5071801;28;20044;-67
2022/07/10 01:51:33;;;;;;;19.20;4.20;;;12.30;99.90;;;;;;5060594;28;20028;-67
2022/07/10 01:53:59;;;;;;;24.27;4.18;;;12.40;99.90;;;;;;5061455;28;20056;-65
2022/07/10 01:56:24;;;;;;;18.35;4.00;;;12.40;99.90;;;;;;5046906;28;20033;-66
2022/07/10 01:58:50;;;;;;;18.17;4.30;;;12.40;99.90;;;;;;5061454;28;20037;-67
2022/07/10 02:01:16;;;;;;;19.23;3.90;;;12.40;99.90;;;;;;5060217;28;20395;-66
2022/07/10 02:06:26;;;;;;;21.85;4.22;;;12.50;99.90;;;;;;5056252;28;20097;-65
2022/07/10 02:08:52;;;;;;;25.83;3.90;;;12.40;99.90;;;;;;5057849;28;20028;-67
2022/07/10 02:11:17;;;;;;;23.60;4.47;;;12.40;99.90;;;;;;5058132;28;20117;-66
2022/07/10 02:13:43;;;;;;;19.88;4.25;;;12.40;99.90;;;;;;5058859;28;20029;-66
2022/07/10 02:16:10;;;;;;;20.70;4.30;;;12.30;99.90;;;;;;5054190;28;20048;-66
2022/07/10 02:18:36;;;;;;;21.27;4.25;;;12.20;99.90;;;;;;5057173;28;20079;-66
2022/07/10 02:21:02;;;;;;;19.77;4.40;;;12.20;99.90;;;;;;5055948;28;20582;-66
2022/07/10 02:23:28;;;;;;;18.92;4.15;;;12.20;99.90;;;;;;5063934;28;20048;-66
2022/07/10 02:25:53;;;;;;;25.67;5.07;;;12.10;99.90;;;;;;5057007;28;20147;-65
2022/07/10 02:28:19;;;;;;;22.02;4.32;;;12.10;99.90;;;;;;5058770;28;20089;-66
2022/07/10 02:30:45;;;;;;;22.08;4.30;;;12.10;99.90;;;;;;5058853;28;20048;-66
2022/07/10 02:33:10;;;;;;;26.33;4.70;;;12.00;99.90;;;;;;5060136;28;20045;-65
2022/07/10 02:35:36;;;;;;;24.20;5.13;;;12.00;99.90;;;;;;5055124;28;20089;-65
2022/07/10 02:38:01;;;;;;;22.60;4.93;;;12.00;99.90;;;;;;5055793;28;20041;-66
2022/07/10 02:40:27;;;;;;;23.63;4.50;;;11.90;99.90;;;;;;5061372;28;20059;-65
2022/07/10 02:42:52;;;;;;;20.33;4.60;;;11.80;99.90;;;;;;5056398;28;20033;-65
2022/07/10 02:45:18;;;;;;;30.45;5.28;;;11.80;99.90;;;;;;5059948;28;20471;-65
2022/07/10 02:47:44;;;;;;;23.55;4.55;;;11.80;99.90;;;;;;5056294;28;20051;-65
2022/07/10 02:50:09;;;;;;;26.38;5.45;;;11.80;99.90;;;;;;5057398;28;20395;-65
2022/07/10 02:52:35;;;;;;;21.10;4.95;;;11.70;99.90;;;;;;5060722;28;20115;-65
2022/07/10 02:55:01;;;;;;;21.83;5.05;;;11.70;99.90;;;;;;5060933;28;20487;-65
2022/07/10 02:57:27;;;;;;;27.17;4.72;;;11.70;99.90;;;;;;5057163;28;20134;-65
2022/07/10 02:59:53;;;;;;;24.38;4.57;;;11.60;99.90;;;;;;5057132;28;20131;-65
2022/07/10 03:02:19;;;;;;;16.00;4.10;;;11.60;99.90;;;;;;5063860;28;20128;-65
2022/07/10 03:04:44;;;;;;;23.63;4.53;;;11.70;99.90;;;;;;5058854;28;20384;-65
2022/07/10 03:07:10;;;;;;;25.45;4.90;;;11.60;99.90;;;;;;5058103;28;20033;-64
2022/07/10 03:09:36;;;;;;;22.60;5.45;;;11.60;99.90;;;;;;5060606;28;20097;-65
2022/07/10 03:12:01;;;;;;;30.45;4.90;;;11.60;99.90;;;;;;5061814;28;20039;-65
2022/07/10 03:14:27;;;;;;;23.88;4.90;;;11.60;99.90;;;;;;5058194;28;20506;-65
2022/07/10 03:16:53;;;;;;;30.60;4.65;;;11.60;99.90;;;;;;5054647;28;20033;-66
2022/07/10 03:19:18;;;;;;;31.35;4.80;;;11.70;99.90;;;;;;5057517;28;20468;-65
2022/07/10 03:21:45;;;;;;;25.77;4.60;;;11.80;99.90;;;;;;5059125;28;20058;-65
2022/07/10 03:24:11;;;;;;;23.88;4.45;;;11.80;99.90;;;;;;5055921;28;20033;-65
2022/07/10 03:26:37;;;;;;;17.45;4.50;;;11.80;99.90;;;;;;5056314;28;20036;-65
2022/07/10 03:29:02;;;;;;;20.05;4.13;;;12.00;99.90;;;;;;5053491;28;20045;-65
2022/07/10 03:31:28;;;;;;;24.17;4.35;;;12.00;99.90;;;;;;5056658;28;20040;-64
2022/07/10 03:33:54;;;;;;;24.08;5.88;;;12.10;99.90;;;;;;5059055;28;20032;-65
2022/07/10 03:36:19;;;;;;;19.40;3.50;;;12.10;99.90;;;;;;5054892;28;20160;-65
2022/07/10 03:38:46;;;;;;;19.35;4.90;;;12.20;99.90;;;;;;5071080;28;20060;-66
2022/07/10 03:41:14;;;;;;;20.67;4.22;;;12.30;99.90;;;;;;5053805;28;20097;-65
2022/07/10 03:43:40;;;;;;;30.67;4.10;;;12.40;99.90;;;;;;5057827;28;20045;-66
2022/07/10 03:46:06;;;;;;;24.42;3.95;;;12.50;99.90;;;;;;5054406;28;20043;-66
2022/07/10 03:48:32;;;;;;;23.13;3.33;;;12.50;99.90;;;;;;5056240;28;20056;-66
2022/07/10 03:50:58;;;;;;;18.42;3.75;;;12.60;99.90;;;;;;5055584;28;20086;-66
2022/07/10 03:53:24;;;;;;;18.73;3.35;;;12.70;99.90;;;;;;5055471;28;20047;-66
2022/07/10 03:55:50;;;;;;;23.30;4.53;;;12.80;99.90;;;;;;5056888;28;20483;-65
2022/07/10 03:58:15;;;;;;;16.33;3.15;;;12.90;99.90;;;;;;5035094;28;20127;-67
2022/07/10 04:00:42;;;;;;;17.75;3.30;;;12.80;99.90;;;;;;5056728;28;20489;-66
2022/07/10 04:03:08;;;;;;;18.20;3.47;;;12.90;99.90;;;;;;5052211;28;20052;-66
2022/07/10 04:05:34;;;;;;;20.38;4.65;;;12.90;99.90;;;;;;5055267;28;20033;-67
2022/07/10 04:08:01;;;;;;;27.33;3.80;;;13.00;99.90;;;;;;5057525;28;20055;-64
2022/07/10 04:10:28;;;;;;;22.30;3.60;;;13.00;99.90;;;;;;5059108;28;20131;-66
2022/07/10 04:12:55;;;;;;;14.45;3.28;;;13.00;99.90;;;;;;5057814;28;20037;-65
2022/07/10 04:15:21;;;;;;;23.27;3.78;;;13.10;99.90;;;;;;5057896;28;20032;-65
2022/07/10 04:17:47;;;;;;;20.08;4.35;;;13.10;99.90;;;;;;5050073;28;20036;-65
2022/07/10 04:20:14;;;;;;;20.75;3.42;;;13.10;99.90;;;;;;5053543;28;20032;-67
2022/07/10 04:22:39;;;;;;;25.10;3.75;;;13.10;99.90;;;;;;5067617;28;20051;-65
2022/07/10 04:25:06;;;;;;;22.60;4.15;;;13.20;99.90;;;;;;5070395;28;20056;-66
2022/07/10 04:27:32;;;;;;;23.45;3.60;;;13.20;99.90;;;;;;5054724;28;20076;-66
2022/07/10 04:29:57;;;;;;;25.25;4.38;;;13.30;99.90;;;;;;5055083;28;20503;-66
2022/07/10 04:32:23;;;;;;;27.45;3.67;;;13.40;99.90;;;;;;5054284;28;20040;-66
2022/07/10 04:34:49;;;;;;;33.22;3.63;;;13.40;99.90;;;;;;5056492;28;20037;-66
2022/07/10 04:37:14;;;;;;;20.67;3.60;;;13.50;99.90;;;;;;5055011;28;20036;-66
2022/07/10 04:39:41;;;;;;;22.33;3.67;;;13.50;99.90;;;;;;5051212;28;20040;-65
2022/07/10 04:42:07;;;;;;;20.23;3.80;;;13.50;99.90;;;;;;5058939;28;20036;-66
2022/07/10 04:44:33;;;;;;;22.50;4.40;;;13.50;99.90;;;;;;5057405;28;20136;-68
2022/07/10 04:46:59;;;;;;;41.80;5.75;;;13.60;99.90;;;;;;5052043;28;20040;-66
2022/07/10 04:49:25;;;;;;;25.25;3.78;;;13.70;99.90;;;;;;5057827;28;20029;-65
2022/07/10 04:51:50;;;;;;;19.90;3.95;;;13.80;99.90;;;;;;5068751;28;20040;-66
2022/07/10 04:54:16;;;;;;;19.48;3.83;;;13.80;99.90;;;;;;5059275;28;20086;-67
2022/07/10 04:56:41;;;;;;;22.65;3.47;;;13.80;99.90;;;;;;5035213;28;20037;-66
2022/07/10 04:59:07;;;;;;;30.45;4.80;;;13.90;99.90;;;;;;5058270;28;20482;-66
2022/07/10 05:01:33;;;;;;;24.33;4.35;;;14.00;99.90;;;;;;5061068;28;20032;-67
2022/07/10 05:03:58;;;;;;;18.90;4.97;;;14.10;99.90;;;;;;5052398;28;20545;-66
2022/07/10 05:06:24;;;;;;;27.40;5.22;;;14.10;99.90;;;;;;5040133;28;20100;-66
2022/07/10 05:08:50;;;;;;;29.75;5.40;;;14.10;99.90;;;;;;5055257;28;20072;-66
2022/07/10 05:11:16;;;;;;;29.48;4.80;;;14.10;99.90;;;;;;5054563;28;20055;-67
2022/07/10 05:13:45;;;;;;;22.25;5.15;;;14.20;99.90;;;;;;5052404;28;20033;-67
2022/07/10 05:16:10;;;;;;;21.15;5.32;;;14.20;99.90;;;;;;5061347;28;20033;-67
2022/07/10 05:18:36;;;;;;;25.95;5.25;;;14.30;99.90;;;;;;5058117;28;20044;-67
2022/07/10 05:21:02;;;;;;;25.50;5.32;;;14.20;99.90;;;;;;5059760;28;20048;-66
2022/07/10 05:23:27;;;;;;;21.85;5.22;;;14.30;99.90;;;;;;5065251;28;20454;-65
2022/07/10 05:25:53;;;;;;;26.23;4.70;;;14.30;99.90;;;;;;5062871;28;20043;-67
2022/07/10 05:28:18;;;;;;;25.95;5.65;;;14.20;99.90;;;;;;5061852;28;20041;-67
2022/07/10 05:30:44;;;;;;;23.35;4.25;;;14.30;99.90;;;;;;5043806;28;20076;-66
2022/07/10 05:33:10;;;;;;;24.67;6.00;;;14.40;99.90;;;;;;5060641;28;20040;-67
2022/07/10 05:35:35;;;;;;;26.60;5.38;;;14.40;99.90;;;;;;5060235;28;20032;-65
2022/07/10 05:38:01;;;;;;;26.15;5.75;;;14.50;99.90;;;;;;5074606;28;20035;-66
2022/07/10 05:40:27;;;;;;;30.30;5.65;;;14.50;99.90;;;;;;5060542;28;20056;-65
2022/07/10 05:42:52;;;;;;;24.33;5.07;;;14.40;99.90;;;;;;5059950;28;20482;-67
2022/07/10 05:45:18;;;;;;;21.67;5.93;;;14.60;99.90;;;;;;5063372;28;20066;-66
2022/07/10 05:47:44;;;;;;;23.58;5.10;;;14.60;99.90;;;;;;5059778;28;20033;-65
2022/07/10 05:50:11;;;;;;;26.55;4.65;;;14.70;99.90;;;;;;5057788;28;20106;-66
2022/07/10 05:52:37;;;;;;;28.27;7.50;;;14.60;99.90;;;;;;5060494;28;20399;-66
2022/07/10 05:55:03;;;;;;;15.38;3.78;;;14.70;99.90;;;;;;5072042;28;20143;-65
2022/07/10 05:57:31;;;;;;;23.00;4.90;;;14.80;99.90;;;;;;5057127;28;20041;-66
2022/07/10 05:59:56;;;;;;;14.80;3.80;;;14.80;99.90;;;;;;5059717;28;20036;-68
2022/07/10 06:02:22;;;;;;;15.15;4.75;;;15.00;99.90;;;;;;5067824;28;20047;-65
2022/07/10 06:04:48;;;;;;;24.35;4.43;;;14.90;99.90;;;;;;5079014;28;20767;-68
2022/07/10 06:07:14;;;;;;;16.60;4.03;;;15.00;99.90;;;;;;5068041;28;20487;-65
2022/07/10 06:09:39;;;;;;;26.92;5.00;;;15.00;99.90;;;;;;5067834;28;20153;-66
2022/07/10 06:12:05;;;;;;;22.58;4.45;;;15.00;99.90;;;;;;5059168;28;20041;-65
2022/07/10 06:14:31;;;;;;;20.38;3.72;;;14.90;99.90;;;;;;5051781;28;20033;-67
2022/07/10 06:16:56;;;;;;;22.20;5.88;;;15.00;99.90;;;;;;5058128;28;20044;-67
2022/07/10 06:19:22;;;;;;;14.40;3.65;;;14.90;99.90;;;;;;5067957;28;20533;-67
2022/07/10 06:21:47;;;;;;;23.67;5.60;;;14.90;99.90;;;;;;5072519;28;20159;-66
2022/07/10 06:24:13;;;;;;;31.27;5.10;;;15.00;99.90;;;;;;5068110;28;20047;-66
2022/07/10 06:26:39;;;;;;;20.73;4.50;;;15.00;99.90;;;;;;5058726;28;20443;-66
2022/07/10 06:29:04;;;;;;;23.20;5.03;;;15.00;99.90;;;;;;5065968;28;20403;-66
2022/07/10 06:31:33;;;;;;;13.82;3.08;;;15.00;99.90;;;;;;5057872;28;20056;-66
2022/07/10 06:33:59;;;;;;;24.05;4.38;;;15.00;99.90;;;;;;5057696;28;20129;-67
2022/07/10 06:36:24;;;;;;;24.77;5.78;;;14.80;99.90;;;;;;5063273;28;20120;-65
2022/07/10 06:38:50;;;;;;;26.45;4.90;;;14.60;99.90;;;;;;5058171;28;20036;-67
2022/07/10 06:41:15;;;;;;;20.38;4.88;;;14.60;99.90;;;;;;5059963;28;20044;-66
2022/07/10 06:43:41;;;;;;;18.20;5.15;;;14.60;99.90;;;;;;5053873;28;20041;-66
2022/07/10 06:46:06;;;;;;;27.88;4.88;;;14.50;99.90;;;;;;5065635;28;20379;-66
2022/07/10 06:48:32;;;;;;;17.25;4.55;;;14.60;99.90;;;;;;5065637;28;20043;-69
2022/07/10 06:50:58;;;;;;;27.90;4.88;;;14.40;99.90;;;;;;5070499;28;20055;-66
2022/07/10 06:53:26;;;;;;;18.30;5.20;;;14.40;99.90;;;;;;5048303;28;20075;-65
2022/07/10 06:55:52;;;;;;;22.52;5.35;;;14.50;99.90;;;;;;5052399;28;20028;-66
2022/07/10 06:58:18;;;;;;;26.90;5.75;;;14.50;99.90;;;;;;5076770;28;20029;-64
2022/07/10 07:00:43;;;;;;;19.63;5.50;;;14.80;99.90;;;;;;5064793;28;20150;-68
2022/07/10 07:03:09;;;;;;;26.15;5.18;;;14.90;99.90;;;;;;5064009;28;20499;-67
2022/07/10 07:05:35;;;;;;;22.27;5.32;;;14.80;99.90;;;;;;5067427;28;20032;-66
2022/07/10 07:08:00;;;;;;;27.73;6.10;;;14.90;99.90;;;;;;5067189;28;20040;-67
2022/07/10 07:10:26;;;;;;;27.58;5.55;;;14.80;99.90;;;;;;5063595;28;20545;-67
2022/07/10 07:12:51;;;;;;;25.38;5.25;;;14.80;99.90;;;;;;5054514;28;20036;-68
2022/07/10 07:15:17;;;;;;;23.33;5.28;;;14.90;99.90;;;;;;5058199;28;20131;-65
2022/07/10 07:23:12;;;;;;;25.05;5.28;;;15.10;99.90;;;;;;5068656;28;20166;-65
2022/07/10 07:25:41;;;;;;;28.75;6.40;;;15.20;99.90;;;;;;5069732;28;20642;-66
2022/07/10 07:28:09;;;;;;;21.95;5.05;;;15.20;99.90;;;;;;5068074;28;20174;-68
2022/07/10 07:30:35;;;;;;;17.95;5.40;;;15.20;99.90;;;;;;5064267;28;20123;-66
2022/07/10 07:33:00;;;;;;;22.95;6.00;;;15.30;99.90;;;;;;5059704;28;20123;-68
2022/07/10 07:35:26;;;;;;;15.50;3.80;;;15.40;99.90;;;;;;5064655;28;20024;-66
2022/07/10 07:37:52;;;;;;;22.48;5.10;;;15.40;99.90;;;;;;5056695;28;20070;-67
2022/07/10 07:40:23;;;;;;;26.38;4.97;;;15.40;99.90;;;;;;5077406;28;20501;-67
2022/07/10 07:42:55;;;;;;;20.20;5.15;;;15.50;99.90;;;;;;5065593;28;20024;-69
2022/07/10 07:45:22;;;;;;;16.20;4.53;;;15.50;99.90;;;;;;5061989;28;20041;-67
2022/07/10 07:47:53;;;;;;;17.83;4.13;;;15.60;99.90;;;;;;5068868;28;20031;-69
2022/07/10 07:50:26;;;;;;;12.07;4.90;;;15.40;99.90;;;;;;5068370;28;20486;-67
2022/07/10 07:52:53;;;;;;;17.63;4.70;;;15.40;99.90;;;;;;5068374;28;20043;-66
2022/07/10 07:55:20;;;;;;;17.48;4.40;;;15.40;99.90;;;;;;5066956;28;20037;-68
2022/07/10 07:57:46;;;;;;;13.15;4.57;;;15.30;99.90;;;;;;5065879;28;20044;-68
2022/07/10 08:00:13;;;;;;;17.55;4.53;;;15.20;99.90;;;;;;5065453;28;20044;-68
2022/07/10 08:02:39;;;;;;;10.02;4.53;;;15.10;99.90;;;;;;5051328;28;20479;-67
2022/07/10 08:05:06;;;;;;;16.48;4.80;;;15.00;99.90;;;;;;5055341;28;20131;-67
2022/07/10 08:07:39;;;;;;;9.82;3.97;;;15.00;99.90;;;;;;5068939;28;20127;-66
2022/07/10 08:10:07;;;;;;;12.98;4.20;;;14.80;99.90;;;;;;5068912;28;20044;-66
2022/07/10 08:12:33;;;;;;;11.60;3.50;;;14.80;99.90;;;;;;5068588;28;20090;-65
2022/07/10 08:14:58;;;;;;;12.18;4.05;;;14.70;99.90;;;;;;5068897;28;20044;-68
2022/07/10 08:17:25;;;;;;;12.68;4.13;;;14.80;99.90;;;;;;5065042;28;20098;-67
2022/07/10 08:19:51;;;;;;;11.48;3.85;;;14.80;99.90;;;;;;5055486;28;20048;-67
2022/07/10 08:22:16;;;;;;;14.82;3.90;;;14.90;99.90;;;;;;5070418;28;20090;-68
2022/07/10 08:24:42;;;;;;;12.52;4.10;;;14.90;99.90;;;;;;5067539;28;20471;-69
2022/07/10 08:27:08;;;;;;;13.85;4.65;;;15.00;99.90;;;;;;5066937;28;20045;-68
2022/07/10 08:29:34;;;;;;;14.45;4.15;;;15.00;99.90;;;;;;5065309;28;20041;-68
2022/07/10 08:31:59;;;;;;;13.30;3.67;;;15.10;99.90;;;;;;5050282;28;20124;-67
2022/07/10 08:34:27;;;;;;;15.55;4.43;;;15.10;99.90;;;;;;5056081;28;20102;-65
2022/07/10 08:36:53;;;;;;;13.57;3.47;;;15.20;99.90;;;;;;5070154;28;20048;-68
2022/07/10 08:39:21;;;;;;;22.33;4.90;;;15.30;99.90;;;;;;5061412;28;21540;-66
2022/07/10 08:41:50;;;;;;;15.30;4.25;;;15.40;99.90;;;;;;5079710;28;20049;-68
2022/07/10 08:44:17;;;;;;;17.58;5.15;;;15.40;99.90;;;;;;5066295;28;20059;-67
2022/07/10 08:46:45;;;;;;;12.02;3.90;;;15.30;99.90;;;;;;5061112;28;20479;-64
2022/07/10 08:49:13;;;;;;;14.55;4.30;;;15.20;99.90;;;;;;5060286;28;20133;-69
2022/07/10 08:51:56;;;;;;;18.38;4.82;;;15.20;99.90;;;;;;5068445;28;20048;-68
2022/07/10 08:54:22;;;;;;;16.88;4.70;;;15.10;99.90;;;;;;5064358;28;20499;-69
2022/07/10 08:56:48;;;;;;;12.80;4.93;;;15.20;99.90;;;;;;5054944;28;20426;-66
2022/07/10 08:59:14;;;;;;;18.02;5.18;;;15.10;99.90;;;;;;5071631;28;20085;-67
2022/07/10 09:01:40;;;;;;;15.30;4.25;;;15.20;99.90;;;;;;5069667;28;20391;-66
2022/07/10 09:04:06;;;;;;;10.27;3.47;;;15.20;99.90;;;;;;5070846;28;20048;-70
2022/07/10 09:06:31;;;;;;;15.50;5.13;;;15.30;99.90;;;;;;5070629;28;20040;-68
2022/07/10 09:09:06;;;;;;;11.32;4.00;;;15.20;99.90;;;;;;5072028;28;20055;-68
2022/07/10 09:11:33;;;;;;;13.13;4.70;;;15.30;99.90;;;;;;5067297;28;20033;-65
2022/07/10 09:14:04;;;;;;;11.45;4.10;;;15.20;99.90;;;;;;5052143;28;20040;-69
2022/07/10 09:16:32;;;;;;;17.75;4.35;;;15.30;99.90;;;;;;5051945;28;20068;-67
2022/07/10 09:19:24;;;;;;;15.77;4.60;;;15.20;99.90;;;;;;5052155;28;20969;-69
2022/07/10 09:21:53;;;;;;;19.23;4.45;;;15.30;99.90;;;;;;5070019;28;20376;-70
2022/07/10 09:24:20;;;;;;;17.30;5.15;;;15.40;99.90;;;;;;5069149;28;20044;-69
2022/07/10 09:27:06;;;;;;;17.98;5.40;;;15.60;99.90;;;;;;5052451;28;20135;-70
2022/07/10 09:29:43;;;;;;;13.63;4.32;;;15.90;99.90;;;;;;5063937;28;20514;-68
2022/07/10 09:32:09;;;;;;;19.05;5.50;;;16.10;99.90;;;;;;5051341;28;20041;-69
2022/07/10 09:34:36;;;;;;;18.13;5.22;;;16.20;99.90;;;;;;5068597;28;20526;-66
2022/07/10 09:37:28;;;;;;;19.08;5.25;;;16.30;99.90;;;;;;5050940;28;20372;-69
2022/07/10 09:40:06;;;;;;;18.17;6.00;;;16.30;99.90;;;;;;5051314;28;20064;-68
2022/07/10 09:42:36;;;;;;;16.58;5.88;;;16.50;99.90;;;;;;5069982;28;20329;-69
2022/07/10 09:45:11;;;;;;;30.23;6.65;;;16.60;99.90;;;;;;5071804;28;20304;-68
2022/07/10 09:47:38;;;;;;;14.40;4.88;;;16.60;99.90;;;;;;5070582;28;20041;-68
2022/07/10 09:50:18;;;;;;;15.02;4.90;;;16.40;99.90;;;;;;5072006;28;20502;-68
2022/07/10 09:52:45;;;;;;;21.60;5.90;;;16.40;99.90;;;;;;5068654;28;20062;-68
2022/07/10 09:55:11;;;;;;;18.08;5.72;;;16.30;99.90;;;;;;5085993;28;20047;-67
2022/07/10 09:57:37;;;;;;;16.35;5.45;;;16.20;99.90;;;;;;5071230;28;20457;-67
2022/07/10 10:00:03;;;;;;;20.90;5.85;;;16.20;99.90;;;;;;5071188;28;20075;-68
2022/07/10 10:02:29;;;;;;;19.40;5.57;;;16.40;99.90;;;;;;5062884;28;20166;-67
2022/07/10 10:04:55;;;;;;;15.05;5.65;;;16.50;99.90;;;;;;5072125;28;20123;-67
2022/07/10 10:07:21;;;;;;;24.65;6.10;;;16.70;99.90;;;;;;5071614;28;20528;-70
2022/07/10 10:09:56;;;;;;;16.40;4.57;;;16.90;99.90;;;;;;5068922;28;20089;-67
2022/07/10 10:12:47;;;;;;;18.33;5.85;;;17.00;99.90;;;;;;5081177;28;20086;-67
2022/07/10 10:15:14;;;;;;;20.33;5.53;;;17.30;99.90;;;;;;5062867;28;20045;-67
2022/07/10 10:17:41;;;;;;;20.30;5.05;;;17.50;99.90;;;;;;5055600;28;20502;-69
2022/07/10 10:22:55;;;;;;;13.35;4.72;;;17.40;99.90;;;;;;5070543;28;20109;-68
2022/07/10 10:25:23;;;;;;;12.85;4.57;;;17.40;99.90;;;;;;5060042;28;20040;-67
2022/07/10 10:27:50;;;;;;;16.33;5.75;;;17.30;99.90;;;;;;5069563;28;20086;-65
2022/07/10 10:30:17;;;;;;;17.85;4.70;;;17.10;99.90;;;;;;5064180;28;20091;-67
2022/07/10 10:32:43;;;;;;;13.23;3.88;;;17.10;99.90;;;;;;5058756;28;20068;-67
2022/07/10 10:35:10;;;;;;;15.00;5.60;;;17.10;99.90;;;;;;5066543;28;20040;-67
2022/07/10 10:37:44;;;;;;;17.33;5.30;;;17.00;99.90;;;;;;5055935;28;20068;-69
2022/07/10 10:40:29;;;;;;;18.92;5.50;;;17.00;99.90;;;;;;5041961;28;20124;-67
2022/07/10 10:42:55;;;;;;;20.45;5.75;;;17.30;99.90;;;;;;5064766;28;20082;-67
2022/07/10 10:45:31;;;;;;;15.60;4.90;;;17.70;99.90;;;;;;5069180;28;20068;-68
2022/07/10 10:47:57;;;;;;;14.20;4.22;;;18.00;99.90;;;;;;5066809;28;20632;-69
2022/07/10 10:50:42;;;;;;;18.20;5.25;;;18.00;99.90;;;;;;5069143;28;20048;-68
2022/07/10 10:53:15;;;;;;;11.90;3.40;;;18.10;99.90;;;;;;5069610;28;20399;-67
2022/07/10 10:55:57;;;;;;;16.48;6.13;;;18.20;99.90;;;;;;5067893;28;20040;-68
2022/07/10 10:58:24;;;;;;;18.80;6.50;;;18.10;99.90;;;;;;5039894;28;20040;-68
2022/07/10 11:00:50;;;;;;;15.77;5.68;;;17.80;99.90;;;;;;5059290;28;20044;-68
2022/07/10 11:03:19;;;;;;;20.83;7.28;;;17.60;99.90;;;;;;5056874;28;21171;-69
2022/07/10 11:05:46;;;;;;;19.83;7.55;;;17.20;99.90;;;;;;5059235;28;20083;-68
2022/07/10 11:08:12;;;;;;;21.30;7.65;;;17.10;99.90;;;;;;5054149;28;20040;-69
2022/07/10 11:10:45;;;;;;;21.95;7.32;;;17.00;99.90;;;;;;5054369;28;20069;-67
2022/07/10 11:13:20;;;;;;;22.08;6.75;;;17.10;99.90;;;;;;5037151;28;20480;-68
2022/07/10 11:15:48;;;;;;;21.95;7.53;;;16.90;99.90;;;;;;5051649;28;20684;-69
2022/07/10 11:18:19;;;;;;;22.73;7.65;;;16.90;99.90;;;;;;5061421;28;20497;-66
2022/07/10 11:20:55;;;;;;;19.00;6.60;;;17.10;99.90;;;;;;5081913;28;20072;-67
2022/07/10 11:23:23;;;;;;;23.50;6.15;;;17.30;99.90;;;;;;5052475;28;20040;-66
2022/07/10 11:26:10;;;;;;;25.10;5.95;;;17.50;99.90;;;;;;5069678;28;20044;-68
2022/07/10 11:28:59;;;;;;;15.20;5.60;;;17.70;99.90;;;;;;5067604;28;20044;-67
2022/07/10 11:31:26;;;;;;;14.65;5.63;;;17.80;99.90;;;;;;5069569;28;20556;-66
2022/07/10 11:33:53;;;;;;;16.77;5.20;;;17.70;99.90;;;;;;5068312;28;20475;-65
2022/07/10 11:36:32;;;;;;;14.48;6.65;;;17.60;99.90;;;;;;5048547;28;20052;-65
2022/07/10 11:39:08;;;;;;;11.65;4.47;;;17.50;99.90;;;;;;5049663;28;20041;-65
2022/07/10 11:41:46;;;;;;;11.75;4.65;;;17.30;99.90;;;;;;5066347;28;20029;-66
2022/07/10 11:44:17;;;;;;;15.35;5.45;;;17.10;99.90;;;;;;5065946;28;20400;-65
2022/07/10 11:46:44;;;;;;;11.60;4.40;;;17.00;99.90;;;;;;5059184;28;20032;-67
2022/07/10 11:49:11;;;;;;;16.88;5.47;;;17.00;99.90;;;;;;5051986;28;20394;-67
2022/07/10 11:51:39;;;;;;;13.00;5.28;;;17.10;99.90;;;;;;5069031;28;20044;-67
2022/07/10 11:54:17;;;;;;;12.88;5.50;;;17.00;99.90;;;;;;5067072;28;20132;-68
2022/07/10 11:56:48;;;;;;;21.38;5.85;;;17.10;99.90;;;;;;5068965;28;20076;-66
2022/07/10 11:59:15;;;;;;;14.18;3.80;;;17.20;99.90;;;;;;5067021;28;20032;-67
2022/07/10 12:01:48;;;;;;;18.38;6.53;;;17.40;99.90;;;;;;5067492;28;20072;-68
2022/07/10 12:04:16;;;;;;;21.08;5.70;;;17.40;99.90;;;;;;5069166;28;20127;-69
2022/07/10 12:06:44;;;;;;;14.82;6.15;;;17.60;99.90;;;;;;5058748;28;20040;-66
2022/07/10 12:09:15;;;;;;;18.23;5.65;;;17.80;99.90;;;;;;5046339;28;20099;-67
2022/07/10 12:11:42;;;;;;;15.00;5.63;;;17.90;99.90;;;;;;5068593;28;20080;-68
2022/07/10 12:14:18;;;;;;;16.70;6.13;;;17.80;99.90;;;;;;5068916;28;20084;-69
2022/07/10 12:16:48;;;;;;;24.00;6.80;;;17.90;99.90;;;;;;5050002;28;20076;-69
2022/07/10 12:19:19;;;;;;;18.75;6.38;;;17.80;99.90;;;;;;5052786;28;20036;-66
2022/07/10 12:21:47;;;;;;;13.70;5.53;;;17.70;99.90;;;;;;5054078;28;20380;-69
2022/07/10 12:24:16;;;;;;;15.27;5.55;;;17.70;99.90;;;;;;5071483;28;20079;-68
2022/07/10 12:26:44;;;;;;;19.90;6.05;;;17.50;99.90;;;;;;5087890;28;20044;-70
2022/07/10 12:29:25;;;;;;;15.27;5.28;;;17.50;99.90;;;;;;5064444;28;20076;-70
2022/07/10 12:31:57;;;;;;;20.30;5.63;;;17.50;99.90;;;;;;5067899;28;20121;-69
2022/07/10 12:34:42;;;;;;;11.00;4.82;;;17.50;99.90;;;;;;5069257;28;20064;-69
2022/07/10 12:37:10;;;;;;;14.52;5.20;;;17.50;99.90;;;;;;5071155;28;20067;-69
2022/07/10 12:39:38;;;;;;;14.98;4.90;;;17.60;99.90;;;;;;5071752;28;20127;-68
2022/07/10 12:42:06;;;;;;;17.67;4.70;;;17.70;99.90;;;;;;5071602;28;20493;-67
2022/07/10 12:44:42;;;;;;;14.10;5.13;;;17.70;99.90;;;;;;5071755;28;20062;-67
2022/07/10 12:47:13;;;;;;;19.17;5.03;;;17.90;99.90;;;;;;5069106;28;20044;-68
2022/07/10 12:49:58;;;;;;;15.85;3.97;;;18.00;99.90;;;;;;5064291;28;20490;-68